CheckWX is a tool to help pilots better visualize weather data.  It is not intended as a substitute for an official pre-flight weather briefing.

16:18:30 UTC

PABV METAR
Birchwood Airport
Birchwood, Alaska, USA
Current

23 mins ago

PABV 171556Z AUTO 00000KT 10SM CLR M01/M02 A2907 RMK AO2 SLP848 T10061022 FZRANO
Observed
Oct-17 @ 15:56 UTC
Visibility
10 SM
Flight Rules
VFR
Cloud Levels
  • Clear skies
Temperature
-1°C / 30°F
Dewpoint
-2°C / 28°F
Humidity
93%
Altimeter
29.07" Hg
Pressure
984.42 hPa
Previous

1 hour ago

PABV 171456Z AUTO 20005KT 10SM OVC080 01/M02 A2906 RMK AO2 SLP846 T00061022 57002 FZRANO
Observed
Oct-17 @ 14:56 UTC
Wind
  • 200° at 5 KTS
Visibility
10 SM
Flight Rules
VFR
Cloud Levels
  • Overcast at 8,000' AGL
Temperature
C / 34°F
Dewpoint
-2°C / 28°F
Humidity
81%
Altimeter
29.06" Hg
Pressure
984.12 hPa
Previous

2 hours ago

PABV 171356Z AUTO 20005KT 10SM BKN090 OVC110 01/M02 A2906 RMK AO2 SLP847 T00061017 FZRANO
Observed
Oct-17 @ 13:56 UTC
Wind
  • 200° at 5 KTS
Visibility
10 SM
Flight Rules
VFR
Cloud Levels
  • Broken at 9,000' AGL
  • Overcast at 11,000' AGL
Temperature
C / 34°F
Dewpoint
-2°C / 28°F
Humidity
81%
Altimeter
29.06" Hg
Pressure
984.12 hPa